sensor_id;sensor_type;location;lat;lon;timestamp;pressure;altitude;pressure_sealevel;temperature;humidity
7990;BME280;4040;42.848;23.034;2022-10-31T00:05:28;95372.56;;;12.24;100.00
7990;BME280;4040;42.848;23.034;2022-10-31T00:11:17;95367.16;;;12.24;100.00
7990;BME280;4040;42.848;23.034;2022-10-31T00:21:29;95362.81;;;11.86;100.00
7990;BME280;4040;42.848;23.034;2022-10-31T00:27:20;95362.16;;;11.68;100.00
7990;BME280;4040;42.848;23.034;2022-10-31T00:33:08;95367.09;;;11.80;100.00
7990;BME280;4040;42.848;23.034;2022-10-31T00:38:58;95370.56;;;11.84;100.00
7990;BME280;4040;42.848;23.034;2022-10-31T00:44:48;95355.13;;;11.81;100.00
7990;BME280;4040;42.848;23.034;2022-10-31T00:50:37;95356.75;;;11.72;100.00
7990;BME280;4040;42.848;23.034;2022-10-31T00:56:26;95370.56;;;11.84;100.00
7990;BME280;4040;42.848;23.034;2022-10-31T01:02:16;95379.03;;;11.86;100.00
7990;BME280;4040;42.848;23.034;2022-10-31T01:08:05;95362.91;;;11.72;100.00
7990;BME280;4040;42.848;23.034;2022-10-31T01:13:54;95352.84;;;11.80;100.00
7990;BME280;4040;42.848;23.034;2022-10-31T01:23:56;95375.72;;;12.19;100.00
7990;BME280;4040;42.848;23.034;2022-10-31T01:29:44;95366.72;;;12.36;100.00
7990;BME280;4040;42.848;23.034;2022-10-31T01:35:33;95365.59;;;12.30;100.00
7990;BME280;4040;42.848;23.034;2022-10-31T01:41:26;95361.00;;;12.27;100.00
7990;BME280;4040;42.848;23.034;2022-10-31T01:47:17;95362.91;;;12.27;100.00
7990;BME280;4040;42.848;23.034;2022-10-31T01:53:09;95352.50;;;12.25;100.00
7990;BME280;4040;42.848;23.034;2022-10-31T01:59:01;95363.94;;;12.43;100.00
7990;BME280;4040;42.848;23.034;2022-10-31T02:04:53;95369.81;;;12.31;100.00
7990;BME280;4040;42.848;23.034;2022-10-31T02:10:43;95366.44;;;12.20;100.00
7990;BME280;4040;42.848;23.034;2022-10-31T02:16:33;95365.06;;;11.98;100.00
7990;BME280;4040;42.848;23.034;2022-10-31T02:26:54;95389.03;;;11.86;100.00
7990;BME280;4040;42.848;23.034;2022-10-31T02:32:59;95397.47;;;11.91;100.00
7990;BME280;4040;42.848;23.034;2022-10-31T02:39:01;95390.59;;;11.83;100.00
7990;BME280;4040;42.848;23.034;2022-10-31T02:44:57;95398.41;;;11.67;100.00
7990;BME280;4040;42.848;23.034;2022-10-31T02:50:54;95404.66;;;11.43;100.00
7990;BME280;4040;42.848;23.034;2022-10-31T02:56:44;95404.97;;;11.52;100.00
7990;BME280;4040;42.848;23.034;2022-10-31T03:02:46;95423.94;;;11.38;100.00
7990;BME280;4040;42.848;23.034;2022-10-31T03:08:45;95414.00;;;11.21;100.00
7990;BME280;4040;42.848;23.034;2022-10-31T03:14:41;95419.00;;;11.12;100.00
7990;BME280;4040;42.848;23.034;2022-10-31T03:20:37;95426.31;;;11.08;100.00
7990;BME280;4040;42.848;23.034;2022-10-31T03:26:29;95423.25;;;11.03;100.00
7990;BME280;4040;42.848;23.034;2022-10-31T03:32:22;95428.66;;;10.99;100.00
7990;BME280;4040;42.848;23.034;2022-10-31T03:38:13;95434.06;;;10.96;100.00
7990;BME280;4040;42.848;23.034;2022-10-31T03:44:08;95434.44;;;10.98;100.00
7990;BME280;4040;42.848;23.034;2022-10-31T03:49:59;95439.44;;;11.10;100.00
7990;BME280;4040;42.848;23.034;2022-10-31T03:55:51;95445.56;;;11.10;100.00
7990;BME280;4040;42.848;23.034;2022-10-31T04:01:45;95447.09;;;11.18;100.00
7990;BME280;4040;42.848;23.034;2022-10-31T04:07:38;95448.69;;;11.05;100.00
7990;BME280;4040;42.848;23.034;2022-10-31T04:13:31;95453.31;;;10.94;100.00
7990;BME280;4040;42.848;23.034;2022-10-31T04:19:23;95444.09;;;10.81;100.00
7990;BME280;4040;42.848;23.034;2022-10-31T04:29:33;95450.25;;;10.71;100.00
7990;BME280;4040;42.848;23.034;2022-10-31T04:35:24;95454.13;;;10.63;100.00
7990;BME280;4040;42.848;23.034;2022-10-31T04:41:12;95458.75;;;10.56;100.00
7990;BME280;4040;42.848;23.034;2022-10-31T04:47:01;95462.19;;;10.42;100.00
7990;BME280;4040;42.848;23.034;2022-10-31T04:52:51;95474.88;;;10.31;100.00
7990;BME280;4040;42.848;23.034;2022-10-31T04:58:40;95471.03;;;10.39;100.00
7990;BME280;4040;42.848;23.034;2022-10-31T05:04:28;95483.75;;;10.49;100.00
7990;BME280;4040;42.848;23.034;2022-10-31T05:10:20;95483.34;;;10.54;100.00
7990;BME280;4040;42.848;23.034;2022-10-31T05:16:09;95494.13;;;10.79;100.00
7990;BME280;4040;42.848;23.034;2022-10-31T05:21:57;95486.41;;;11.02;100.00
7990;BME280;4040;42.848;23.034;2022-10-31T05:32:09;95497.97;;;10.95;100.00
7990;BME280;4040;42.848;23.034;2022-10-31T05:37:58;95512.97;;;11.10;100.00
7990;BME280;4040;42.848;23.034;2022-10-31T05:43:47;95510.25;;;11.17;100.00
7990;BME280;4040;42.848;23.034;2022-10-31T05:49:37;95509.91;;;12.29;100.00
7990;BME280;4040;42.848;23.034;2022-10-31T05:55:26;95495.59;;;14.01;100.00
7990;BME280;4040;42.848;23.034;2022-10-31T06:01:15;95496.09;;;15.02;100.00
7990;BME280;4040;42.848;23.034;2022-10-31T06:07:05;95487.94;;;15.02;100.00
7990;BME280;4040;42.848;23.034;2022-10-31T06:12:53;95505.59;;;15.78;100.00
7990;BME280;4040;42.848;23.034;2022-10-31T06:18:42;95510.75;;;16.99;100.00
7990;BME280;4040;42.848;23.034;2022-10-31T06:24:33;95516.69;;;18.02;96.14
7990;BME280;4040;42.848;23.034;2022-10-31T06:34:43;95509.69;;;21.22;72.66
7990;BME280;4040;42.848;23.034;2022-10-31T06:40:55;95519.41;;;22.26;66.97
7990;BME280;4040;42.848;23.034;2022-10-31T06:46:45;95521.47;;;23.17;58.23
7990;BME280;4040;42.848;23.034;2022-10-31T06:52:34;95519.47;;;23.73;57.20
7990;BME280;4040;42.848;23.034;2022-10-31T06:58:25;95526.66;;;24.18;53.45
7990;BME280;4040;42.848;23.034;2022-10-31T07:04:13;95534.72;;;22.77;56.71
7990;BME280;4040;42.848;23.034;2022-10-31T07:10:02;95538.63;;;22.94;56.85
7990;BME280;4040;42.848;23.034;2022-10-31T07:15:53;95506.56;;;23.00;56.41
7990;BME280;4040;42.848;23.034;2022-10-31T07:21:42;95530.63;;;26.02;49.72
7990;BME280;4040;42.848;23.034;2022-10-31T07:27:35;95524.28;;;27.90;44.46
7990;BME280;4040;42.848;23.034;2022-10-31T07:37:47;95518.94;;;27.39;43.00
7990;BME280;4040;42.848;23.034;2022-10-31T07:43:36;95522.59;;;29.28;39.98
7990;BME280;4040;42.848;23.034;2022-10-31T07:49:25;95515.81;;;30.19;37.31
7990;BME280;4040;42.848;23.034;2022-10-31T07:55:15;95516.53;;;28.91;38.55
7990;BME280;4040;42.848;23.034;2022-10-31T08:01:04;95509.66;;;31.23;35.29
7990;BME280;4040;42.848;23.034;2022-10-31T08:06:53;95514.88;;;30.11;36.40
7990;BME280;4040;42.848;23.034;2022-10-31T08:12:43;95513.78;;;31.94;34.61
7990;BME280;4040;42.848;23.034;2022-10-31T08:18:31;95510.69;;;31.74;34.28
7990;BME280;4040;42.848;23.034;2022-10-31T08:24:20;95510.09;;;32.65;33.11
7990;BME280;4040;42.848;23.034;2022-10-31T08:30:11;95506.97;;;33.82;31.53
7990;BME280;4040;42.848;23.034;2022-10-31T08:40:22;95499.25;;;32.80;32.41
7990;BME280;4040;42.848;23.034;2022-10-31T08:46:13;95487.09;;;33.09;31.81
7990;BME280;4040;42.848;23.034;2022-10-31T08:52:01;95506.41;;;31.73;33.05
7990;BME280;4040;42.848;23.034;2022-10-31T08:57:54;95498.25;;;34.37;30.92
7990;BME280;4040;42.848;23.034;2022-10-31T09:03:45;95494.31;;;34.53;30.29
7990;BME280;4040;42.848;23.034;2022-10-31T09:09:33;95492.19;;;34.20;29.78
7990;BME280;4040;42.848;23.034;2022-10-31T09:15:22;95491.78;;;34.16;29.98
7990;BME280;4040;42.848;23.034;2022-10-31T09:21:12;95484.66;;;35.97;28.50
7990;BME280;4040;42.848;23.034;2022-10-31T09:27:01;95477.69;;;36.19;27.33
7990;BME280;4040;42.848;23.034;2022-10-31T09:32:54;95475.34;;;36.02;27.01
7990;BME280;4040;42.848;23.034;2022-10-31T09:43:14;95466.63;;;37.74;25.75
7990;BME280;4040;42.848;23.034;2022-10-31T09:49:30;95460.56;;;39.33;24.25
7990;BME280;4040;42.848;23.034;2022-10-31T09:55:27;95459.66;;;37.08;25.69
7990;BME280;4040;42.848;23.034;2022-10-31T10:01:39;95449.09;;;38.36;24.27
7990;BME280;4040;42.848;23.034;2022-10-31T10:07:38;95434.59;;;37.10;24.43
7990;BME280;4040;42.848;23.034;2022-10-31T10:13:45;95432.25;;;36.71;24.73
7990;BME280;4040;42.848;23.034;2022-10-31T10:20:05;95430.47;;;37.41;23.97
7990;BME280;4040;42.848;23.034;2022-10-31T10:26:05;95420.50;;;37.70;23.83
7990;BME280;4040;42.848;23.034;2022-10-31T10:32:00;95424.09;;;36.45;24.78
7990;BME280;4040;42.848;23.034;2022-10-31T10:37:56;95421.72;;;36.49;24.84
7990;BME280;4040;42.848;23.034;2022-10-31T10:43:49;95417.59;;;36.50;24.34
7990;BME280;4040;42.848;23.034;2022-10-31T10:49:43;95410.19;;;36.75;24.49
7990;BME280;4040;42.848;23.034;2022-10-31T10:55:40;95411.75;;;37.13;23.71
7990;BME280;4040;42.848;23.034;2022-10-31T11:01:31;95407.19;;;36.73;24.08
7990;BME280;4040;42.848;23.034;2022-10-31T11:07:21;95394.44;;;36.64;23.97
7990;BME280;4040;42.848;23.034;2022-10-31T11:13:23;95397.50;;;37.04;24.02
7990;BME280;4040;42.848;23.034;2022-10-31T11:19:16;95374.53;;;36.40;24.33
7990;BME280;4040;42.848;23.034;2022-10-31T11:25:20;95386.22;;;36.59;24.24
7990;BME280;4040;42.848;23.034;2022-10-31T11:31:13;95381.00;;;37.38;23.42
7990;BME280;4040;42.848;23.034;2022-10-31T11:37:09;95370.53;;;37.38;23.68
7990;BME280;4040;42.848;23.034;2022-10-31T11:43:00;95370.44;;;34.32;25.96
7990;BME280;4040;42.848;23.034;2022-10-31T11:48:52;95369.47;;;32.06;28.82
7990;BME280;4040;42.848;23.034;2022-10-31T11:54:46;95365.25;;;28.24;34.25
7990;BME280;4040;42.848;23.034;2022-10-31T12:00:37;95362.09;;;26.72;36.51
7990;BME280;4040;42.848;23.034;2022-10-31T12:06:32;95357.25;;;26.06;36.84
7990;BME280;4040;42.848;23.034;2022-10-31T12:12:42;95363.81;;;25.63;38.39
7990;BME280;4040;42.848;23.034;2022-10-31T12:18:47;95360.69;;;25.30;39.29
7990;BME280;4040;42.848;23.034;2022-10-31T12:25:05;95352.16;;;25.13;40.00
7990;BME280;4040;42.848;23.034;2022-10-31T12:31:06;95358.69;;;25.16;40.25
7990;BME280;4040;42.848;23.034;2022-10-31T12:37:00;95363.81;;;25.03;39.29
7990;BME280;4040;42.848;23.034;2022-10-31T12:43:05;95360.47;;;24.79;40.33
7990;BME280;4040;42.848;23.034;2022-10-31T12:49:11;95353.66;;;24.74;41.28
7990;BME280;4040;42.848;23.034;2022-10-31T12:55:15;95366.97;;;24.61;41.46
7990;BME280;4040;42.848;23.034;2022-10-31T13:01:12;95360.91;;;24.57;41.39
7990;BME280;4040;42.848;23.034;2022-10-31T13:07:04;95371.53;;;24.50;41.60
7990;BME280;4040;42.848;23.034;2022-10-31T13:12:59;95367.53;;;24.36;41.66
7990;BME280;4040;42.848;23.034;2022-10-31T13:18:55;95365.09;;;24.24;41.56
7990;BME280;4040;42.848;23.034;2022-10-31T13:24:52;95359.97;;;24.17;42.35
7990;BME280;4040;42.848;23.034;2022-10-31T13:30:41;95374.97;;;24.16;42.61
7990;BME280;4040;42.848;23.034;2022-10-31T13:36:36;95363.19;;;23.86;42.72
7990;BME280;4040;42.848;23.034;2022-10-31T13:42:37;95371.03;;;23.79;43.99
7990;BME280;4040;42.848;23.034;2022-10-31T13:48:39;95367.53;;;23.64;43.00
7990;BME280;4040;42.848;23.034;2022-10-31T13:54:34;95376.91;;;23.58;44.24
7990;BME280;4040;42.848;23.034;2022-10-31T14:00:24;95368.06;;;23.53;43.89
7990;BME280;4040;42.848;23.034;2022-10-31T14:06:15;95377.22;;;23.36;44.05
7990;BME280;4040;42.848;23.034;2022-10-31T14:12:07;95371.59;;;23.31;44.51
7990;BME280;4040;42.848;23.034;2022-10-31T14:17:58;95375.81;;;23.17;44.87
7990;BME280;4040;42.848;23.034;2022-10-31T14:23:48;95390.06;;;23.07;45.66
7990;BME280;4040;42.848;23.034;2022-10-31T14:29:39;95374.78;;;22.82;46.14
7990;BME280;4040;42.848;23.034;2022-10-31T14:35:37;95384.69;;;22.56;46.99
7990;BME280;4040;42.848;23.034;2022-10-31T14:46:00;95374.13;;;22.13;48.59
7990;BME280;4040;42.848;23.034;2022-10-31T14:51:50;95371.47;;;21.86;49.74
7990;BME280;4040;42.848;23.034;2022-10-31T14:57:43;95373.94;;;21.66;50.46
7990;BME280;4040;42.848;23.034;2022-10-31T15:03:38;95373.75;;;21.34;51.59
7990;BME280;4040;42.848;23.034;2022-10-31T15:09:28;95365.69;;;21.03;52.97
7990;BME280;4040;42.848;23.034;2022-10-31T15:15:20;95376.84;;;20.78;54.04
7990;BME280;4040;42.848;23.034;2022-10-31T15:21:11;95375.84;;;20.46;55.76
7990;BME280;4040;42.848;23.034;2022-10-31T15:27:03;95382.28;;;20.21;57.09
7990;BME280;4040;42.848;23.034;2022-10-31T15:32:52;95390.75;;;19.93;58.89
7990;BME280;4040;42.848;23.034;2022-10-31T15:38:43;95399.97;;;19.65;62.34
7990;BME280;4040;42.848;23.034;2022-10-31T15:48:53;95408.03;;;19.13;65.89
7990;BME280;4040;42.848;23.034;2022-10-31T15:54:47;95389.56;;;18.70;69.75
7990;BME280;4040;42.848;23.034;2022-10-31T16:00:38;95412.50;;;18.48;73.31
7990;BME280;4040;42.848;23.034;2022-10-31T16:06:26;95421.28;;;18.14;78.29
7990;BME280;4040;42.848;23.034;2022-10-31T16:12:17;95429.19;;;17.84;80.97
7990;BME280;4040;42.848;23.034;2022-10-31T16:18:05;95429.16;;;17.43;83.44
7990;BME280;4040;42.848;23.034;2022-10-31T16:24:01;95440.41;;;17.13;85.45
7990;BME280;4040;42.848;23.034;2022-10-31T16:29:53;95447.41;;;16.82;89.09
7990;BME280;4040;42.848;23.034;2022-10-31T16:35:43;95460.16;;;16.53;92.18
7990;BME280;4040;42.848;23.034;2022-10-31T16:41:35;95471.13;;;16.30;95.22
7990;BME280;4040;42.848;23.034;2022-10-31T16:51:49;95477.19;;;15.63;100.00
7990;BME280;4040;42.848;23.034;2022-10-31T16:57:37;95491.75;;;15.31;100.00
7990;BME280;4040;42.848;23.034;2022-10-31T17:03:26;95490.66;;;15.02;100.00
7990;BME280;4040;42.848;23.034;2022-10-31T17:09:16;95503.59;;;14.68;100.00
7990;BME280;4040;42.848;23.034;2022-10-31T17:15:06;95507.81;;;14.46;100.00
7990;BME280;4040;42.848;23.034;2022-10-31T17:21:03;95505.31;;;14.55;100.00
7990;BME280;4040;42.848;23.034;2022-10-31T17:26:54;95511.69;;;14.45;100.00
7990;BME280;4040;42.848;23.034;2022-10-31T17:32:44;95482.63;;;14.19;100.00
7990;BME280;4040;42.848;23.034;2022-10-31T17:38:33;95525.56;;;14.50;100.00
7990;BME280;4040;42.848;23.034;2022-10-31T17:44:23;95527.75;;;14.59;100.00
7990;BME280;4040;42.848;23.034;2022-10-31T17:54:33;95521.09;;;14.37;100.00
7990;BME280;4040;42.848;23.034;2022-10-31T18:00:24;95527.84;;;14.22;100.00
7990;BME280;4040;42.848;23.034;2022-10-31T18:06:13;95532.16;;;14.16;100.00
7990;BME280;4040;42.848;23.034;2022-10-31T18:12:03;95521.41;;;14.09;100.00
7990;BME280;4040;42.848;23.034;2022-10-31T18:17:53;95523.78;;;14.07;100.00
7990;BME280;4040;42.848;23.034;2022-10-31T18:23:42;95528.31;;;14.17;100.00
7990;BME280;4040;42.848;23.034;2022-10-31T18:29:31;95533.28;;;14.22;100.00
7990;BME280;4040;42.848;23.034;2022-10-31T18:35:21;95536.03;;;14.18;100.00
7990;BME280;4040;42.848;23.034;2022-10-31T18:41:10;95531.81;;;14.14;100.00
7990;BME280;4040;42.848;23.034;2022-10-31T18:47:00;95537.59;;;14.16;100.00
7990;BME280;4040;42.848;23.034;2022-10-31T18:57:11;95541.75;;;13.90;100.00
7990;BME280;4040;42.848;23.034;2022-10-31T19:03:00;95536.25;;;13.64;100.00
7990;BME280;4040;42.848;23.034;2022-10-31T19:08:49;95550.66;;;13.54;100.00
7990;BME280;4040;42.848;23.034;2022-10-31T19:14:39;95552.03;;;13.32;100.00
7990;BME280;4040;42.848;23.034;2022-10-31T19:20:28;95545.91;;;13.24;100.00
7990;BME280;4040;42.848;23.034;2022-10-31T19:26:17;95548.66;;;13.21;100.00
7990;BME280;4040;42.848;23.034;2022-10-31T19:32:07;95551.53;;;13.00;100.00
7990;BME280;4040;42.848;23.034;2022-10-31T19:37:56;95562.03;;;12.84;100.00
7990;BME280;4040;42.848;23.034;2022-10-31T19:43:45;95559.81;;;12.72;100.00
7990;BME280;4040;42.848;23.034;2022-10-31T19:49:35;95566.75;;;12.73;100.00
7990;BME280;4040;42.848;23.034;2022-10-31T19:59:46;95569.69;;;12.92;100.00
7990;BME280;4040;42.848;23.034;2022-10-31T20:05:40;95553.13;;;12.87;100.00
7990;BME280;4040;42.848;23.034;2022-10-31T20:11:29;95571.28;;;12.90;100.00
7990;BME280;4040;42.848;23.034;2022-10-31T20:17:18;95580.97;;;12.84;100.00
7990;BME280;4040;42.848;23.034;2022-10-31T20:23:08;95580.75;;;12.57;100.00
7990;BME280;4040;42.848;23.034;2022-10-31T20:28:58;95587.09;;;12.20;100.00
7990;BME280;4040;42.848;23.034;2022-10-31T20:34:47;95589.47;;;12.07;100.00
7990;BME280;4040;42.848;23.034;2022-10-31T20:40:37;95594.88;;;12.04;100.00
7990;BME280;4040;42.848;23.034;2022-10-31T20:46:26;95592.56;;;12.02;100.00
7990;BME280;4040;42.848;23.034;2022-10-31T20:52:15;95596.47;;;11.84;100.00
7990;BME280;4040;42.848;23.034;2022-10-31T21:02:27;95599.22;;;11.63;100.00
7990;BME280;4040;42.848;23.034;2022-10-31T21:08:16;95588.06;;;11.40;100.00
7990;BME280;4040;42.848;23.034;2022-10-31T21:14:04;95596.56;;;11.24;100.00
7990;BME280;4040;42.848;23.034;2022-10-31T21:19:54;95593.47;;;11.19;100.00
7990;BME280;4040;42.848;23.034;2022-10-31T21:25:43;95584.19;;;11.30;100.00
7990;BME280;4040;42.848;23.034;2022-10-31T21:31:33;95582.69;;;11.22;100.00
7990;BME280;4040;42.848;23.034;2022-10-31T21:37:23;95583.44;;;11.19;100.00
7990;BME280;4040;42.848;23.034;2022-10-31T21:43:12;95584.22;;;11.09;100.00
7990;BME280;4040;42.848;23.034;2022-10-31T21:49:01;95582.31;;;11.13;100.00
7990;BME280;4040;42.848;23.034;2022-10-31T21:54:51;95588.06;;;11.15;100.00
7990;BME280;4040;42.848;23.034;2022-10-31T22:05:02;95599.63;;;11.26;100.00
7990;BME280;4040;42.848;23.034;2022-10-31T22:10:53;95599.22;;;11.31;100.00
7990;BME280;4040;42.848;23.034;2022-10-31T22:16:41;95607.31;;;11.35;100.00
7990;BME280;4040;42.848;23.034;2022-10-31T22:22:30;95616.97;;;11.25;100.00
7990;BME280;4040;42.848;23.034;2022-10-31T22:28:20;95611.56;;;11.04;100.00
7990;BME280;4040;42.848;23.034;2022-10-31T22:34:10;95622.34;;;10.90;100.00
7990;BME280;4040;42.848;23.034;2022-10-31T22:39:59;95625.03;;;10.83;100.00
7990;BME280;4040;42.848;23.034;2022-10-31T22:45:54;95615.75;;;10.70;100.00
7990;BME280;4040;42.848;23.034;2022-10-31T22:51:49;95613.34;;;10.30;100.00
7990;BME280;4040;42.848;23.034;2022-10-31T22:57:39;95620.16;;;10.07;100.00
7990;BME280;4040;42.848;23.034;2022-10-31T23:08:34;95612.91;;;9.54;100.00
7990;BME280;4040;42.848;23.034;2022-10-31T23:14:23;95616.19;;;9.30;100.00
7990;BME280;4040;42.848;23.034;2022-10-31T23:20:12;95617.97;;;9.12;100.00
7990;BME280;4040;42.848;23.034;2022-10-31T23:26:03;95612.41;;;8.91;100.00
7990;BME280;4040;42.848;23.034;2022-10-31T23:32:11;95607.69;;;8.74;100.00
7990;BME280;4040;42.848;23.034;2022-10-31T23:38:00;95617.50;;;8.59;100.00
7990;BME280;4040;42.848;23.034;2022-10-31T23:43:50;95618.63;;;8.55;100.00
7990;BME280;4040;42.848;23.034;2022-10-31T23:49:39;95621.38;;;8.62;100.00
7990;BME280;4040;42.848;23.034;2022-10-31T23:55:27;95616.41;;;8.64;100.00
